createdAt,value
2023-05-17T00:01:48.005Z,6.65
2023-05-17T00:04:15.175Z,9.55
2023-05-17T00:06:43.501Z,9.98
2023-05-17T00:09:10.534Z,9.00
2023-05-17T00:11:39.624Z,8.00
2023-05-17T00:14:06.658Z,9.32
2023-05-17T00:16:33.793Z,12.60
2023-05-17T00:19:00.914Z,9.20
2023-05-17T00:21:28.028Z,8.85
2023-05-17T00:23:55.117Z,9.93
2023-05-17T00:26:22.233Z,7.97
2023-05-17T00:28:49.285Z,10.13
2023-05-17T00:31:16.454Z,9.40
2023-05-17T00:33:44.588Z,8.80
2023-05-17T00:36:11.959Z,10.27
2023-05-17T00:38:39.140Z,10.40
2023-05-17T00:41:06.905Z,11.15
2023-05-17T00:43:34.018Z,8.52
2023-05-17T00:46:01.092Z,17.73
2023-05-17T00:48:29.864Z,12.73
2023-05-17T00:50:58.946Z,12.95
2023-05-17T00:53:26.752Z,19.90
2023-05-17T00:55:55.600Z,13.52
2023-05-17T00:58:23.458Z,14.02
2023-05-17T01:00:51.361Z,14.35
2023-05-17T01:03:18.709Z,13.45
2023-05-17T01:05:45.946Z,12.43
2023-05-17T01:08:12.889Z,11.65
2023-05-17T01:10:39.896Z,11.57
2023-05-17T01:13:16.074Z,9.20
2023-05-17T01:15:49.311Z,10.32
2023-05-17T01:18:26.199Z,9.50
2023-05-17T01:20:58.100Z,17.20
2023-05-17T01:23:42.312Z,10.27
2023-05-17T01:26:17.717Z,10.03
2023-05-17T01:28:47.484Z,10.18
2023-05-17T01:31:17.340Z,10.48
2023-05-17T01:33:45.062Z,9.13
2023-05-17T01:36:12.255Z,8.30
2023-05-17T01:38:39.362Z,11.38
2023-05-17T01:41:16.679Z,11.20
2023-05-17T01:43:55.756Z,9.43
2023-05-17T01:46:35.463Z,9.02
2023-05-17T01:49:19.399Z,11.95
2023-05-17T01:51:53.454Z,8.65
2023-05-17T01:54:27.747Z,9.43
2023-05-17T01:57:07.561Z,9.98
2023-05-17T01:59:38.380Z,9.32
2023-05-17T02:02:11.838Z,14.25
2023-05-17T02:04:38.952Z,9.80
2023-05-17T02:07:06.166Z,11.38
2023-05-17T02:09:33.286Z,12.25
2023-05-17T02:12:00.373Z,9.13
2023-05-17T02:14:27.783Z,8.82
2023-05-17T02:16:54.932Z,7.78
2023-05-17T02:19:22.176Z,13.00
2023-05-17T02:21:49.242Z,11.98
2023-05-17T02:24:16.282Z,10.00
2023-05-17T02:26:43.543Z,9.30
2023-05-17T02:29:11.383Z,12.05
2023-05-17T02:31:38.398Z,10.88
2023-05-17T02:34:05.409Z,10.63
2023-05-17T02:36:32.810Z,8.57
2023-05-17T02:38:59.943Z,12.70
2023-05-17T02:41:27.250Z,9.05
2023-05-17T02:43:54.327Z,7.82
2023-05-17T02:46:21.891Z,9.23
2023-05-17T02:48:48.933Z,9.07
2023-05-17T02:51:16.002Z,8.18
2023-05-17T02:53:43.206Z,11.90
2023-05-17T02:56:10.451Z,10.00
2023-05-17T02:58:37.844Z,10.40
2023-05-17T03:01:05.100Z,14.68
2023-05-17T03:03:32.472Z,10.55
2023-05-17T03:06:05.086Z,10.57
2023-05-17T03:08:33.146Z,8.05
2023-05-17T03:11:01.740Z,9.95
2023-05-17T03:13:29.272Z,9.20
2023-05-17T03:15:56.354Z,9.57
2023-05-17T03:18:23.557Z,9.27
2023-05-17T03:20:51.420Z,7.93
2023-05-17T03:23:18.836Z,9.40
2023-05-17T03:25:53.138Z,11.63
2023-05-17T03:28:21.196Z,11.60
2023-05-17T03:30:48.956Z,18.08
2023-05-17T03:33:16.234Z,8.00
2023-05-17T03:35:43.384Z,10.13
2023-05-17T03:38:10.706Z,9.65
2023-05-17T03:40:37.777Z,10.02
2023-05-17T03:43:05.049Z,8.50
2023-05-17T03:45:33.417Z,10.70
2023-05-17T03:48:00.588Z,12.63
2023-05-17T03:50:32.781Z,14.07
2023-05-17T03:53:00.052Z,13.25
2023-05-17T03:55:27.337Z,19.02
2023-05-17T03:57:54.989Z,11.07
2023-05-17T04:00:22.416Z,14.25
2023-05-17T04:02:52.993Z,16.73
2023-05-17T04:05:20.548Z,14.70
2023-05-17T04:07:48.684Z,13.10
2023-05-17T04:10:16.407Z,19.20
2023-05-17T04:12:45.418Z,16.25
2023-05-17T04:15:12.588Z,14.27
2023-05-17T04:17:41.647Z,20.40
2023-05-17T04:20:09.757Z,14.75
2023-05-17T04:22:37.013Z,16.90
2023-05-17T04:25:04.777Z,17.92
2023-05-17T04:27:32.722Z,17.52
2023-05-17T04:29:59.887Z,14.15
2023-05-17T04:32:28.233Z,15.18
2023-05-17T04:34:56.786Z,13.57
2023-05-17T04:37:24.762Z,10.25
2023-05-17T04:39:56.532Z,13.95
2023-05-17T04:42:23.658Z,14.90
2023-05-17T04:44:55.889Z,11.30
2023-05-17T04:47:22.988Z,11.40
2023-05-17T04:49:51.631Z,9.10
2023-05-17T04:52:18.701Z,11.20
2023-05-17T04:54:46.909Z,15.98
2023-05-17T04:57:15.228Z,7.53
2023-05-17T04:59:55.857Z,8.40
2023-05-17T05:02:23.071Z,10.35
2023-05-17T05:04:50.180Z,7.85
2023-05-17T05:07:18.038Z,8.85
2023-05-17T05:09:46.555Z,10.35
2023-05-17T05:12:15.317Z,10.97
2023-05-17T05:14:43.329Z,8.43
2023-05-17T05:17:10.592Z,8.55
2023-05-17T05:19:40.174Z,8.60
2023-05-17T05:22:07.786Z,12.40
2023-05-17T05:24:37.167Z,8.33
2023-05-17T05:27:06.811Z,8.95
2023-05-17T05:29:34.242Z,17.40
2023-05-17T05:32:01.457Z,13.05
2023-05-17T05:34:29.713Z,9.93
2023-05-17T05:36:56.824Z,8.57
2023-05-17T05:39:24.038Z,10.82
2023-05-17T05:41:52.191Z,8.15
2023-05-17T05:44:19.679Z,8.60
2023-05-17T05:46:48.304Z,10.05
2023-05-17T05:49:16.585Z,6.93
2023-05-17T05:51:44.010Z,7.55
2023-05-17T05:54:11.106Z,6.38
2023-05-17T05:56:38.943Z,7.82
2023-05-17T05:59:07.703Z,6.80
2023-05-17T06:01:34.971Z,7.73
2023-05-17T06:04:02.009Z,9.70
2023-05-17T06:06:29.268Z,6.50
2023-05-17T06:08:58.858Z,6.30
2023-05-17T06:11:26.985Z,11.43
2023-05-17T06:13:54.037Z,7.10
2023-05-17T06:16:21.073Z,5.35
2023-05-17T06:18:50.338Z,10.05
2023-05-17T06:21:18.745Z,6.95
2023-05-17T06:23:45.930Z,8.55
2023-05-17T06:26:13.091Z,6.40
2023-05-17T06:28:40.237Z,9.50
2023-05-17T06:31:07.441Z,8.07
2023-05-17T06:33:34.500Z,7.00
2023-05-17T06:38:33.669Z,6.57
2023-05-17T06:41:00.689Z,5.78
2023-05-17T06:43:28.044Z,7.80
2023-05-17T06:45:55.196Z,8.05
2023-05-17T06:48:22.405Z,7.22
2023-05-17T06:50:49.979Z,6.40
2023-05-17T06:53:17.201Z,7.00
2023-05-17T06:55:44.900Z,8.63
2023-05-17T06:58:12.301Z,7.30
2023-05-17T07:00:40.272Z,6.32
2023-05-17T07:03:10.008Z,4.97
2023-05-17T07:05:37.386Z,7.18
2023-05-17T07:08:04.927Z,7.05
2023-05-17T07:10:32.779Z,4.35
2023-05-17T07:13:01.761Z,5.93
2023-05-17T07:15:29.430Z,7.77
2023-05-17T07:17:56.732Z,8.45
2023-05-17T07:20:23.780Z,7.15
2023-05-17T07:22:50.786Z,8.98
2023-05-17T07:25:19.002Z,8.23
2023-05-17T07:27:46.121Z,5.10
2023-05-17T07:30:13.443Z,7.07
2023-05-17T07:32:40.684Z,8.05
2023-05-17T07:35:08.099Z,6.72
2023-05-17T07:37:35.143Z,6.72
2023-05-17T07:40:02.632Z,6.20
2023-05-17T07:42:30.914Z,7.57
2023-05-17T07:44:59.064Z,7.43
2023-05-17T07:47:26.268Z,6.90
2023-05-17T07:49:53.368Z,5.63
2023-05-17T07:52:20.390Z,7.97
2023-05-17T07:54:48.479Z,7.95
2023-05-17T07:57:15.667Z,5.80
2023-05-17T07:59:42.745Z,8.70
2023-05-17T08:02:10.152Z,5.53
2023-05-17T08:04:37.352Z,6.13
2023-05-17T08:07:05.186Z,7.70
2023-05-17T08:09:32.359Z,8.10
2023-05-17T08:11:59.380Z,6.35
2023-05-17T08:14:27.164Z,8.05
2023-05-17T08:16:54.254Z,7.00
2023-05-17T08:19:21.392Z,4.82
2023-05-17T08:21:49.423Z,5.55
2023-05-17T08:24:17.898Z,5.78
2023-05-17T08:26:45.377Z,5.32
2023-05-17T08:29:14.933Z,5.97
2023-05-17T08:31:41.940Z,11.15
2023-05-17T08:34:09.321Z,6.55
2023-05-17T08:36:36.643Z,10.45
2023-05-17T08:39:04.318Z,7.93
2023-05-17T08:41:32.853Z,6.10
2023-05-17T08:44:01.005Z,5.18
2023-05-17T08:46:28.886Z,6.72
2023-05-17T08:49:00.421Z,7.97
2023-05-17T08:51:27.989Z,6.60
2023-05-17T08:53:55.725Z,4.73
2023-05-17T08:56:26.280Z,6.00
2023-05-17T08:58:58.010Z,7.97
2023-05-17T09:01:27.918Z,4.82
2023-05-17T09:03:56.207Z,6.00
2023-05-17T09:06:24.426Z,5.43
2023-05-17T09:08:53.173Z,5.55
2023-05-17T09:11:33.105Z,6.70
2023-05-17T09:14:01.922Z,6.85
2023-05-17T09:16:30.670Z,6.63
2023-05-17T09:18:58.706Z,9.30
2023-05-17T09:21:27.183Z,5.15
2023-05-17T09:24:05.474Z,5.13
2023-05-17T09:26:40.361Z,7.32
2023-05-17T09:29:15.439Z,5.20
2023-05-17T09:31:43.645Z,5.97
2023-05-17T09:34:11.629Z,4.30
2023-05-17T09:36:44.130Z,3.90
2023-05-17T09:39:13.628Z,8.65
2023-05-17T09:41:42.887Z,6.65
2023-05-17T09:44:11.969Z,5.73
2023-05-17T09:46:44.604Z,5.57
2023-05-17T09:49:12.723Z,5.95
2023-05-17T09:51:47.558Z,8.43
2023-05-17T09:54:15.005Z,12.60
2023-05-17T09:56:42.182Z,5.20
2023-05-17T09:59:14.208Z,6.97
2023-05-17T10:01:42.761Z,4.60
2023-05-17T10:04:12.040Z,5.05
2023-05-17T10:06:49.671Z,5.15
2023-05-17T10:09:21.908Z,5.93
2023-05-17T10:11:51.192Z,4.57
2023-05-17T10:14:23.907Z,4.32
2023-05-17T10:16:53.355Z,5.65
2023-05-17T10:19:21.345Z,6.63
2023-05-17T10:21:51.223Z,7.07
2023-05-17T10:24:21.644Z,6.10
2023-05-17T10:26:52.243Z,4.63
2023-05-17T10:29:22.387Z,5.28
2023-05-17T10:31:53.413Z,7.55
2023-05-17T10:34:21.132Z,4.47
2023-05-17T10:36:50.343Z,5.40
2023-05-17T10:39:18.205Z,7.65
2023-05-17T10:41:48.553Z,8.90
2023-05-17T10:44:17.409Z,6.30
2023-05-17T10:46:59.651Z,5.70
2023-05-17T10:49:31.926Z,5.32
2023-05-17T10:52:00.297Z,5.55
2023-05-17T10:54:37.313Z,6.70
2023-05-17T10:57:08.589Z,4.03
2023-05-17T10:59:36.372Z,6.30
2023-05-17T11:02:04.737Z,6.93
2023-05-17T11:04:41.190Z,4.03
2023-05-17T11:07:22.413Z,7.50
2023-05-17T11:10:12.518Z,6.22
2023-05-17T11:12:49.497Z,4.70
2023-05-17T11:15:17.492Z,6.05
2023-05-17T11:17:44.751Z,7.57
2023-05-17T11:20:16.556Z,4.70
2023-05-17T11:22:56.504Z,6.85
2023-05-17T11:25:23.561Z,5.53
2023-05-17T11:27:52.624Z,4.63
2023-05-17T11:30:24.686Z,5.25
2023-05-17T11:32:54.147Z,8.13
2023-05-17T11:35:26.930Z,7.45
2023-05-17T11:37:55.176Z,9.10
2023-05-17T11:40:28.376Z,5.43
2023-05-17T11:43:11.913Z,7.53
2023-05-17T11:45:53.492Z,7.45
2023-05-17T11:48:26.168Z,6.88
2023-05-17T11:50:56.782Z,4.23
2023-05-17T11:53:25.673Z,6.18
2023-05-17T11:55:53.238Z,4.18
2023-05-17T11:58:24.731Z,5.70
2023-05-17T12:00:58.615Z,8.55
2023-05-17T12:03:29.049Z,7.07
2023-05-17T12:06:04.365Z,7.28
2023-05-17T12:08:34.490Z,5.78
2023-05-17T12:11:02.307Z,4.47
2023-05-17T12:13:35.349Z,4.68
2023-05-17T12:16:10.055Z,7.77
2023-05-17T12:18:41.586Z,7.53
2023-05-17T12:21:13.399Z,7.60
2023-05-17T12:23:43.686Z,5.70
2023-05-17T12:26:15.868Z,5.32
2023-05-17T12:28:52.991Z,5.67
2023-05-17T12:31:28.625Z,4.50
2023-05-17T12:33:56.529Z,7.18
2023-05-17T12:36:24.444Z,6.00
2023-05-17T12:38:53.527Z,5.40
2023-05-17T12:41:22.896Z,6.17
2023-05-17T12:43:50.541Z,6.53
2023-05-17T12:46:23.247Z,8.20
2023-05-17T12:48:51.941Z,9.55
2023-05-17T12:51:23.828Z,4.60
2023-05-17T12:53:52.865Z,7.47
2023-05-17T12:56:29.665Z,6.53
2023-05-17T12:59:17.404Z,7.30
2023-05-17T13:01:49.214Z,6.22
2023-05-17T13:04:18.247Z,5.50
2023-05-17T13:06:57.446Z,4.70
2023-05-17T13:09:26.414Z,7.82
2023-05-17T13:11:58.188Z,10.10
2023-05-17T13:14:43.476Z,8.45
2023-05-17T13:17:18.209Z,8.30
2023-05-17T13:19:45.378Z,8.47
2023-05-17T13:22:12.789Z,5.68
2023-05-17T13:24:40.162Z,5.53
2023-05-17T13:27:08.018Z,7.72
2023-05-17T13:29:40.167Z,8.73
2023-05-17T13:32:08.952Z,6.23
2023-05-17T13:34:36.398Z,6.93
2023-05-17T13:37:04.322Z,5.72
2023-05-17T13:39:31.546Z,6.95
2023-05-17T13:42:00.302Z,7.72
2023-05-17T13:44:27.469Z,5.60
2023-05-17T13:46:54.526Z,6.40
2023-05-17T13:49:21.783Z,5.70
2023-05-17T13:51:48.861Z,7.93
2023-05-17T13:54:16.102Z,7.22
2023-05-17T13:56:43.337Z,5.03
2023-05-17T13:59:10.372Z,10.50
2023-05-17T14:01:37.660Z,5.53
2023-05-17T14:04:04.951Z,6.53
2023-05-17T14:06:32.185Z,5.15
2023-05-17T14:09:00.932Z,5.93
2023-05-17T14:11:28.218Z,5.70
2023-05-17T14:13:55.621Z,5.90
2023-05-17T14:16:23.015Z,11.35
2023-05-17T14:18:50.213Z,8.30
2023-05-17T14:21:18.020Z,5.37
2023-05-17T14:23:45.070Z,6.63
2023-05-17T14:26:12.272Z,9.18
2023-05-17T14:28:39.725Z,10.68
2023-05-17T14:31:07.237Z,6.75
2023-05-17T14:33:34.809Z,6.30
2023-05-17T14:36:02.418Z,4.35
2023-05-17T14:38:29.670Z,12.82
2023-05-17T14:40:57.859Z,6.03
2023-05-17T14:43:25.333Z,7.32
2023-05-17T14:45:52.437Z,6.50
2023-05-17T14:48:19.548Z,8.60
2023-05-17T14:50:46.693Z,6.78
2023-05-17T14:53:13.766Z,5.45
2023-05-17T14:55:41.468Z,5.57
2023-05-17T14:58:08.525Z,8.10
2023-05-17T15:00:35.607Z,4.75
2023-05-17T15:03:03.272Z,8.18
2023-05-17T15:05:30.501Z,7.28
2023-05-17T15:07:57.871Z,6.85
2023-05-17T15:10:25.282Z,5.93
2023-05-17T15:12:52.504Z,7.30
2023-05-17T15:15:22.265Z,5.60
2023-05-17T15:17:49.431Z,6.65
2023-05-17T15:20:16.517Z,7.35
2023-05-17T15:22:44.619Z,6.70
2023-05-17T15:25:11.782Z,10.27
2023-05-17T15:27:38.804Z,7.10
2023-05-17T15:30:06.769Z,8.55
2023-05-17T15:32:34.464Z,9.77
2023-05-17T15:35:01.695Z,7.07
2023-05-17T15:37:30.452Z,8.15
2023-05-17T15:40:07.554Z,10.35
2023-05-17T15:42:34.556Z,6.40
2023-05-17T15:45:01.565Z,5.68
2023-05-17T15:47:42.541Z,6.13
2023-05-17T15:50:11.314Z,8.70
2023-05-17T15:52:39.658Z,8.23
2023-05-17T15:55:06.917Z,6.32
2023-05-17T15:57:33.967Z,8.13
2023-05-17T16:00:01.117Z,5.93
2023-05-17T16:02:28.234Z,7.32
2023-05-17T16:04:55.256Z,6.70
2023-05-17T16:07:22.939Z,6.78
2023-05-17T16:09:50.024Z,9.05
2023-05-17T16:12:17.308Z,7.47
2023-05-17T16:14:45.081Z,7.53
2023-05-17T16:17:12.206Z,6.00
2023-05-17T16:19:39.395Z,9.98
2023-05-17T16:22:06.527Z,7.65
2023-05-17T16:24:33.981Z,9.95
2023-05-17T16:27:01.090Z,8.80
2023-05-17T16:29:28.353Z,7.65
2023-05-17T16:31:55.532Z,8.52
2023-05-17T16:34:24.685Z,14.55
2023-05-17T16:36:52.389Z,10.80
2023-05-17T16:52:33.006Z,7.60
2023-05-17T16:55:03.577Z,8.40
2023-05-17T16:57:32.424Z,9.15
2023-05-17T17:00:01.221Z,10.20
2023-05-17T17:02:31.812Z,10.13
2023-05-17T17:04:58.871Z,15.55
2023-05-17T17:07:25.965Z,9.57
2023-05-17T17:09:53.073Z,14.65
2023-05-17T17:12:24.758Z,7.32
2023-05-17T17:14:53.946Z,7.90
2023-05-17T17:17:21.021Z,8.88
2023-05-17T17:19:48.276Z,9.80
2023-05-17T17:22:16.418Z,8.75
2023-05-17T17:24:44.543Z,8.65
2023-05-17T17:27:11.781Z,14.43
2023-05-17T17:29:38.846Z,13.50
2023-05-17T17:32:06.684Z,14.87
2023-05-17T17:34:34.001Z,9.23
2023-05-17T17:37:01.121Z,11.43
2023-05-17T17:39:28.139Z,11.30
2023-05-17T17:41:55.317Z,12.77
2023-05-17T17:44:22.362Z,16.33
2023-05-17T17:46:49.728Z,7.97
2023-05-17T17:49:16.881Z,10.38
2023-05-17T17:51:43.998Z,8.65
2023-05-17T17:54:10.987Z,10.27
2023-05-17T17:56:37.967Z,9.37
2023-05-17T17:59:05.007Z,7.97
2023-05-17T18:01:34.047Z,11.50
2023-05-17T18:04:01.352Z,9.98
2023-05-17T18:06:28.482Z,8.23
2023-05-17T18:08:55.720Z,8.60
2023-05-17T18:11:22.941Z,9.82
2023-05-17T18:13:50.049Z,11.02
2023-05-17T18:16:17.158Z,10.98
2023-05-17T18:18:44.414Z,9.68
2023-05-17T18:21:12.821Z,11.03
2023-05-17T18:23:39.931Z,11.18
2023-05-17T18:26:07.207Z,11.20
2023-05-17T18:28:42.393Z,10.00
2023-05-17T18:31:10.787Z,12.30
2023-05-17T18:33:37.956Z,10.60
2023-05-17T18:36:05.340Z,18.10
2023-05-17T18:38:32.382Z,16.35
2023-05-17T18:40:59.359Z,15.27
2023-05-17T18:43:26.339Z,20.80
2023-05-17T18:45:53.534Z,14.80
2023-05-17T18:48:22.275Z,15.35
2023-05-17T18:50:49.465Z,25.52
2023-05-17T18:53:16.648Z,20.88
2023-05-17T18:55:43.721Z,16.02
2023-05-17T18:58:10.850Z,19.13
2023-05-17T19:00:37.966Z,18.20
2023-05-17T19:03:05.152Z,15.82
2023-05-17T19:05:32.384Z,18.33
2023-05-17T19:07:59.412Z,17.50
2023-05-17T19:10:26.582Z,23.47
2023-05-17T19:12:53.754Z,19.15
2023-05-17T19:15:21.282Z,17.90
2023-05-17T19:17:48.486Z,18.33
2023-05-17T19:20:16.067Z,18.02
2023-05-17T19:22:43.133Z,11.73
2023-05-17T19:25:10.459Z,21.67
2023-05-17T19:27:37.496Z,14.85
2023-05-17T19:30:05.610Z,16.08
2023-05-17T19:32:33.319Z,12.45
2023-05-17T19:35:01.606Z,19.90
2023-05-17T19:37:29.044Z,10.07
2023-05-17T19:39:56.124Z,14.55
2023-05-17T19:42:23.240Z,13.18
2023-05-17T19:44:50.398Z,15.50
2023-05-17T19:47:17.536Z,11.50
2023-05-17T19:49:44.634Z,13.23
2023-05-17T19:52:11.844Z,18.70
2023-05-17T19:54:38.968Z,13.40
2023-05-17T19:57:06.302Z,15.32
2023-05-17T19:59:33.801Z,12.20
2023-05-17T20:02:00.971Z,13.98
2023-05-17T20:04:28.103Z,14.13
2023-05-17T20:06:55.159Z,13.63
2023-05-17T20:09:22.385Z,14.63
2023-05-17T20:11:49.488Z,16.33
2023-05-17T20:14:16.573Z,19.48
2023-05-17T20:16:43.709Z,12.23
2023-05-17T20:19:11.080Z,15.07
2023-05-17T20:21:38.171Z,14.32
2023-05-17T20:24:06.911Z,17.53
2023-05-17T20:26:37.844Z,12.90
2023-05-17T20:29:08.665Z,17.42
2023-05-17T20:31:36.644Z,15.60
2023-05-17T20:34:05.143Z,12.18
2023-05-17T20:36:32.561Z,13.40
2023-05-17T20:38:59.748Z,16.58
2023-05-17T20:41:26.884Z,12.45
2023-05-17T20:43:53.991Z,11.77
2023-05-17T20:46:21.113Z,13.80
2023-05-17T20:48:49.934Z,12.20
2023-05-17T20:51:18.214Z,14.10
2023-05-17T20:53:46.714Z,12.98
2023-05-17T20:56:14.439Z,11.13
2023-05-17T20:58:41.521Z,14.85
2023-05-17T21:01:08.523Z,13.80
2023-05-17T21:03:35.802Z,13.02
2023-05-17T21:06:02.936Z,12.38
2023-05-17T21:08:29.947Z,14.13
2023-05-17T21:10:57.009Z,16.33
2023-05-17T21:13:25.909Z,10.57
2023-05-17T21:15:55.011Z,12.65
2023-05-17T21:18:23.471Z,13.77
2023-05-17T21:20:51.627Z,15.18
2023-05-17T21:23:19.138Z,14.80
2023-05-17T21:25:46.228Z,11.63
2023-05-17T21:28:13.273Z,25.15
2023-05-17T21:30:40.760Z,14.98
2023-05-17T21:33:08.003Z,15.40
2023-05-17T21:35:35.290Z,15.57
2023-05-17T21:38:02.416Z,15.50
2023-05-17T21:40:29.826Z,17.58
2023-05-17T21:42:57.039Z,9.75
2023-05-17T21:45:24.217Z,14.65
2023-05-17T21:47:51.284Z,12.32
2023-05-17T21:50:18.823Z,10.27
2023-05-17T21:52:45.979Z,14.30
2023-05-17T21:55:13.132Z,14.25
2023-05-17T21:57:40.264Z,9.80
2023-05-17T22:00:08.975Z,13.52
2023-05-17T22:02:36.924Z,13.13
2023-05-17T22:05:07.457Z,12.10
2023-05-17T22:07:35.068Z,11.65
2023-05-17T22:10:02.557Z,13.82
2023-05-17T22:12:31.551Z,14.27
2023-05-17T22:14:58.764Z,12.83
2023-05-17T22:17:39.255Z,11.73
2023-05-17T22:20:17.160Z,14.43
2023-05-17T22:22:44.427Z,12.73
2023-05-17T22:25:12.345Z,12.68
2023-05-17T22:27:39.357Z,13.07
2023-05-17T22:30:07.794Z,15.00
2023-05-17T22:32:37.565Z,14.25
2023-05-17T22:35:05.079Z,13.50
2023-05-17T22:37:33.007Z,16.17
2023-05-17T22:40:00.247Z,14.53
2023-05-17T22:42:27.517Z,15.27
2023-05-17T22:44:54.732Z,13.95
2023-05-17T22:47:23.412Z,15.13
2023-05-17T22:49:52.768Z,13.40
2023-05-17T22:52:20.426Z,18.03
2023-05-17T22:54:47.514Z,13.38
2023-05-17T22:57:14.545Z,17.40
2023-05-17T22:59:44.206Z,15.57
2023-05-17T23:02:12.378Z,17.98
2023-05-17T23:04:40.551Z,16.87
2023-05-17T23:07:10.241Z,15.50
2023-05-17T23:09:40.732Z,14.45
2023-05-17T23:12:08.976Z,20.55
2023-05-17T23:14:36.986Z,13.38
2023-05-17T23:17:04.622Z,17.23
2023-05-17T23:19:33.295Z,16.83
2023-05-17T23:22:06.236Z,17.05
2023-05-17T23:24:38.994Z,15.70
2023-05-17T23:27:10.384Z,17.23
2023-05-17T23:29:37.666Z,16.10
2023-05-17T23:32:05.022Z,16.92
2023-05-17T23:34:32.349Z,22.35
2023-05-17T23:36:59.406Z,19.63
2023-05-17T23:39:26.504Z,18.33
2023-05-17T23:41:53.714Z,20.37
2023-05-17T23:44:20.932Z,17.75
2023-05-17T23:46:48.208Z,16.85
2023-05-17T23:49:16.668Z,15.20
2023-05-17T23:51:43.771Z,18.65
2023-05-17T23:54:10.796Z,15.40
2023-05-17T23:56:37.803Z,16.38
2023-05-17T23:59:04.882Z,17.88
